createdAt,value
2022-09-28T00:00:53.413Z,0.11
2022-09-28T00:03:23.997Z,0.11
2022-09-28T00:05:54.641Z,0.1
2022-09-28T00:08:24.813Z,0.11
2022-09-28T00:10:55.496Z,0.12
2022-09-28T00:13:25.595Z,0.1
2022-09-28T00:15:55.862Z,0.1
2022-09-28T00:18:26.396Z,0.09
2022-09-28T00:20:56.777Z,0.09
2022-09-28T00:23:27.313Z,0.1
2022-09-28T00:25:57.859Z,0.09
2022-09-28T00:28:28.500Z,0.09
2022-09-28T00:30:59.217Z,0.08
2022-09-28T00:33:29.758Z,0.09
2022-09-28T00:36:00.292Z,0.1
2022-09-28T00:38:30.896Z,0.1
2022-09-28T00:41:01.204Z,0.1
2022-09-28T00:43:31.765Z,0.09
2022-09-28T00:46:02.371Z,0.09
2022-09-28T00:48:32.806Z,0.1
2022-09-28T00:51:03.435Z,0.09
2022-09-28T00:53:33.933Z,0.09
2022-09-28T00:56:04.562Z,0.1
2022-09-28T00:58:35.061Z,0.09
2022-09-28T01:01:05.641Z,0.08
2022-09-28T01:03:36.165Z,0.09
2022-09-28T01:06:06.832Z,0.09
2022-09-28T01:08:37.264Z,0.09
2022-09-28T01:11:07.545Z,0.09
2022-09-28T01:13:38.150Z,0.08
2022-09-28T01:16:08.745Z,0.09
2022-09-28T01:18:38.989Z,0.1
2022-09-28T01:21:09.598Z,0.09
2022-09-28T01:23:40.111Z,0.1
2022-09-28T01:26:10.306Z,0.09
2022-09-28T01:28:40.941Z,0.09
2022-09-28T01:31:11.548Z,0.09
2022-09-28T01:33:41.706Z,0.09
2022-09-28T01:36:12.275Z,0.09
2022-09-28T01:38:42.692Z,0.09
2022-09-28T01:41:13.165Z,0.08
2022-09-28T01:43:43.498Z,0.09
2022-09-28T01:46:14.248Z,0.1
2022-09-28T01:48:44.647Z,0.1
2022-09-28T01:51:15.532Z,0.1
2022-09-28T01:53:45.735Z,0.09
2022-09-28T01:56:16.510Z,0.09
2022-09-28T01:58:46.628Z,0.09
2022-09-28T02:01:17.483Z,0.09
2022-09-28T02:03:47.422Z,0.09
2022-09-28T02:06:18.189Z,0.09
2022-09-28T02:08:48.229Z,0.09
2022-09-28T02:11:18.441Z,0.09
2022-09-28T02:13:49.088Z,0.08
2022-09-28T02:16:19.071Z,0.08
2022-09-28T02:18:49.599Z,0.08
2022-09-28T02:21:20.367Z,0.09
2022-09-28T02:23:50.989Z,0.08
2022-09-28T02:26:21.193Z,0.08
2022-09-28T02:28:51.507Z,0.07
2022-09-28T02:31:22.111Z,0.07
2022-09-28T02:33:52.632Z,0.07
2022-09-28T02:36:23.487Z,0.08
2022-09-28T02:38:53.771Z,0.08
2022-09-28T02:41:24.026Z,0.07
2022-09-28T02:43:54.223Z,0.08
2022-09-28T02:46:24.288Z,0.09
2022-09-28T02:49:10.389Z,0.1
2022-09-28T02:51:25.448Z,0.08
2022-09-28T02:53:56.044Z,0.1
2022-09-28T02:56:26.892Z,0.09
2022-09-28T02:58:57.713Z,0.09
2022-09-28T03:01:27.712Z,0.1
2022-09-28T03:03:58.431Z,0.09
2022-09-28T03:06:28.811Z,0.09
2022-09-28T03:08:59.163Z,0.09
2022-09-28T03:11:29.902Z,0.09
2022-09-28T03:14:00.500Z,0.09
2022-09-28T03:16:30.742Z,0.08
2022-09-28T03:19:00.972Z,0.08
2022-09-28T03:21:31.510Z,0.07
2022-09-28T03:24:01.803Z,0.08
2022-09-28T03:26:32.557Z,0.08
2022-09-28T03:29:03.225Z,0.09
2022-09-28T03:31:33.909Z,0.08
2022-09-28T03:34:04.473Z,0.08
2022-09-28T03:36:34.664Z,0.08
2022-09-28T03:39:05.517Z,0.07
2022-09-28T03:41:36.407Z,0.07
2022-09-28T03:44:06.982Z,0.07
2022-09-28T03:46:37.157Z,0.06
2022-09-28T03:49:07.948Z,0.06
2022-09-28T03:51:38.144Z,0.07
2022-09-28T03:54:08.486Z,0.07
2022-09-28T03:56:38.673Z,0.08
2022-09-28T03:59:08.994Z,0.1
2022-09-28T04:01:39.927Z,0.09
2022-09-28T04:04:09.897Z,0.1
2022-09-28T04:06:40.324Z,0.09
2022-09-28T04:09:10.831Z,0.09
2022-09-28T04:11:59.764Z,0.08
2022-09-28T04:14:11.484Z,0.1
2022-09-28T04:16:42.341Z,0.09
2022-09-28T04:19:12.552Z,0.09
2022-09-28T04:21:43.040Z,0.12
2022-09-28T04:24:13.135Z,0.13
2022-09-28T04:26:43.319Z,0.13
2022-09-28T04:29:13.775Z,0.13
2022-09-28T04:31:43.958Z,0.14
2022-09-28T04:34:14.160Z,0.14
2022-09-28T04:36:44.866Z,0.15
2022-09-28T04:39:15.485Z,0.14
2022-09-28T04:41:46.030Z,0.14
2022-09-28T04:44:15.985Z,0.12
2022-09-28T04:46:46.496Z,0.12
2022-09-28T04:49:17.015Z,0.12
2022-09-28T04:51:47.598Z,0.1
2022-09-28T04:54:18.204Z,0.11
2022-09-28T04:56:48.205Z,0.1
2022-09-28T04:59:19.045Z,0.11
2022-09-28T05:01:49.125Z,0.1
2022-09-28T05:04:22.373Z,0.09
2022-09-28T05:06:49.880Z,0.08
2022-09-28T05:09:20.155Z,0.08
2022-09-28T05:11:50.737Z,0.08
2022-09-28T05:14:21.378Z,0.08
2022-09-28T05:16:52.198Z,0.07
2022-09-28T05:19:22.453Z,0.08
2022-09-28T05:21:53.326Z,0.1
2022-09-28T05:24:24.152Z,0.11
2022-09-28T05:26:54.479Z,0.11
2022-09-28T05:29:26.417Z,0.09
2022-09-28T05:31:55.666Z,0.09
2022-09-28T05:34:25.888Z,0.09
2022-09-28T05:36:56.543Z,0.08
2022-09-28T05:39:26.868Z,0.09
2022-09-28T05:41:56.725Z,0.09
2022-09-28T05:44:27.331Z,0.07
2022-09-28T05:46:57.667Z,0.08
2022-09-28T05:49:28.059Z,0.08
2022-09-28T05:51:58.854Z,0.1
2022-09-28T05:54:29.691Z,0.11
2022-09-28T05:56:59.925Z,0.12
2022-09-28T05:59:30.614Z,0.1
2022-09-28T06:02:00.630Z,0.09
2022-09-28T06:04:31.480Z,0.09
2022-09-28T06:07:02.015Z,0.11
2022-09-28T06:09:32.530Z,0.12
2022-09-28T06:12:03.143Z,0.12
2022-09-28T06:14:34.061Z,0.11
2022-09-28T06:17:04.246Z,0.11
2022-09-28T06:19:34.814Z,0.1
2022-09-28T06:22:05.442Z,0.13
2022-09-28T06:24:35.867Z,0.13
2022-09-28T06:27:06.039Z,0.11
2022-09-28T06:29:36.336Z,0.13
2022-09-28T06:32:06.518Z,0.12
2022-09-28T06:34:37.229Z,0.1
2022-09-28T06:37:08.029Z,0.11
2022-09-28T06:39:38.447Z,0.14
2022-09-28T06:42:08.471Z,0.11
2022-09-28T06:44:39.158Z,0.1
2022-09-28T06:47:09.708Z,0.15
2022-09-28T06:49:40.600Z,0.15
2022-09-28T06:52:11.399Z,0.12
2022-09-28T06:54:42.298Z,0.1
2022-09-28T06:57:13.085Z,0.11
2022-09-28T06:59:43.164Z,0.11
2022-09-28T07:02:14.085Z,0.15
2022-09-28T07:04:44.744Z,0.17
2022-09-28T07:07:15.581Z,0.16
2022-09-28T07:09:50.330Z,0.27
2022-09-28T07:12:16.662Z,0.24
2022-09-28T07:14:48.325Z,0.22
2022-09-28T07:17:17.543Z,0.24
2022-09-28T07:19:47.533Z,0.28
2022-09-28T07:22:19.581Z,0.31
2022-09-28T07:24:48.187Z,0.27
2022-09-28T07:27:18.897Z,0.2
2022-09-28T07:29:48.903Z,0.25
2022-09-28T07:32:19.198Z,0.32
2022-09-28T07:34:50.231Z,0.25
2022-09-28T07:37:20.492Z,0.29
2022-09-28T07:39:51.160Z,0.23
2022-09-28T07:42:21.895Z,0.25
2022-09-28T07:44:52.168Z,0.22
2022-09-28T07:47:22.841Z,0.24
2022-09-28T07:49:53.030Z,0.26
2022-09-28T07:52:23.817Z,0.25
2022-09-28T07:54:54.133Z,0.25
2022-09-28T07:59:55.299Z,0.27
2022-09-28T08:02:25.602Z,0.3
2022-09-28T08:04:55.869Z,0.28
2022-09-28T08:07:26.554Z,0.28
2022-09-28T08:09:56.981Z,0.19
2022-09-28T08:12:27.262Z,0.23
2022-09-28T08:14:57.309Z,0.23
2022-09-28T08:17:27.846Z,0.25
2022-09-28T08:19:58.103Z,0.24
2022-09-28T08:22:28.660Z,0.26
2022-09-28T08:24:59.241Z,0.28
2022-09-28T08:27:29.778Z,0.31
2022-09-28T08:29:59.774Z,0.28
2022-09-28T08:32:29.995Z,0.26
2022-09-28T08:35:00.396Z,0.3
2022-09-28T08:37:31.281Z,0.32
2022-09-28T08:40:01.726Z,0.28
2022-09-28T08:42:31.837Z,0.28
2022-09-28T08:45:02.445Z,0.28
2022-09-28T08:47:32.884Z,0.33
2022-09-28T08:50:03.416Z,0.24
2022-09-28T08:52:33.561Z,0.27
2022-09-28T08:55:04.066Z,0.27
2022-09-28T08:57:34.256Z,0.26
2022-09-28T09:00:09.564Z,0.26
2022-09-28T09:02:35.937Z,0.31
2022-09-28T09:05:06.455Z,0.19
2022-09-28T09:07:36.445Z,0.22
2022-09-28T09:10:07.050Z,0.3
2022-09-28T09:12:37.174Z,0.32
2022-09-28T09:15:08.066Z,0.29
2022-09-28T09:17:38.605Z,0.21
2022-09-28T09:20:09.020Z,0.28
2022-09-28T09:22:39.053Z,0.26
2022-09-28T09:25:09.808Z,0.2
2022-09-28T09:27:40.357Z,0.33
2022-09-28T09:30:10.679Z,0.23
2022-09-28T09:32:41.139Z,0.3
2022-09-28T09:35:11.431Z,0.24
2022-09-28T09:37:42.158Z,0.25
2022-09-28T09:40:12.959Z,0.23
2022-09-28T09:42:43.454Z,0.18
2022-09-28T09:45:13.559Z,0.26
2022-09-28T09:47:44.172Z,0.29
2022-09-28T09:50:14.367Z,0.27
2022-09-28T09:52:45.100Z,0.3
2022-09-28T09:55:15.914Z,0.28
2022-09-28T09:57:46.331Z,0.28
2022-09-28T10:00:16.617Z,0.33
2022-09-28T10:02:47.168Z,0.32
2022-09-28T10:05:17.909Z,0.34
2022-09-28T10:07:48.071Z,0.28
2022-09-28T10:10:18.786Z,0.33
2022-09-28T10:12:49.638Z,0.38
2022-09-28T10:15:19.328Z,0.35
2022-09-28T10:17:49.897Z,0.34
2022-09-28T10:20:20.103Z,0.39
2022-09-28T10:22:50.632Z,0.35
2022-09-28T10:25:20.901Z,0.33
2022-09-28T10:27:51.063Z,0.25
2022-09-28T10:30:21.626Z,0.37
2022-09-28T10:32:52.137Z,0.4
2022-09-28T10:35:22.639Z,0.36
2022-09-28T10:37:53.127Z,0.34
2022-09-28T10:40:23.669Z,0.38
2022-09-28T10:42:53.852Z,0.41
2022-09-28T10:45:24.394Z,0.34
2022-09-28T10:47:54.869Z,0.39
2022-09-28T10:50:25.129Z,0.39
2022-09-28T10:52:55.237Z,0.38
2022-09-28T10:55:26.033Z,0.34
2022-09-28T10:57:56.536Z,0.38
2022-09-28T11:00:27.059Z,0.4
2022-09-28T11:02:57.606Z,0.44
2022-09-28T11:05:28.107Z,0.4
2022-09-28T11:07:58.536Z,0.44
2022-09-28T11:10:28.798Z,0.43
2022-09-28T11:12:59.297Z,0.44
2022-09-28T11:15:29.826Z,0.4
2022-09-28T11:18:00.300Z,0.44
2022-09-28T11:20:30.832Z,0.45
2022-09-28T11:23:01.332Z,0.39
2022-09-28T11:25:31.507Z,0.35
2022-09-28T11:28:01.993Z,0.38
2022-09-28T11:30:32.570Z,0.31
2022-09-28T11:33:03.127Z,0.35
2022-09-28T11:35:33.667Z,0.44
2022-09-28T11:38:03.936Z,0.4
2022-09-28T11:40:34.505Z,0.44
2022-09-28T11:45:35.401Z,0.38
2022-09-28T11:48:05.935Z,0.47
2022-09-28T11:50:36.419Z,0.48
2022-09-28T11:53:06.857Z,0.4
2022-09-28T11:55:37.139Z,0.41
2022-09-28T11:58:07.521Z,0.4
2022-09-28T12:00:38.074Z,0.41
2022-09-28T12:03:08.647Z,0.36
2022-09-28T12:05:38.986Z,0.47
2022-09-28T12:08:09.408Z,0.43
2022-09-28T12:10:43.359Z,0.53
2022-09-28T12:13:10.345Z,0.49
2022-09-28T12:16:07.502Z,0.45
2022-09-28T12:18:11.314Z,0.43
2022-09-28T12:20:41.746Z,0.41
2022-09-28T12:23:12.200Z,0.45
2022-09-28T12:25:42.683Z,0.47
2022-09-28T12:28:13.141Z,0.46
2022-09-28T12:30:43.721Z,0.5
2022-09-28T12:33:14.115Z,0.38
2022-09-28T12:35:44.614Z,0.48
2022-09-28T12:38:15.017Z,0.49
2022-09-28T12:40:45.564Z,0.46
2022-09-28T12:43:15.941Z,0.5
2022-09-28T12:46:09.848Z,0.48
2022-09-28T12:48:16.860Z,0.49
2022-09-28T12:50:54.670Z,0.48
2022-09-28T12:53:17.784Z,0.43
2022-09-28T12:55:48.092Z,0.56
2022-09-28T12:58:18.334Z,0.44
2022-09-28T13:00:49.039Z,0.52
2022-09-28T13:03:19.551Z,0.44
2022-09-28T13:05:50.093Z,0.33
2022-09-28T13:08:20.679Z,0.33
2022-09-28T13:10:51.150Z,0.35
2022-09-28T13:13:21.698Z,0.34
2022-09-28T13:15:52.104Z,0.53
2022-09-28T13:18:22.461Z,0.53
2022-09-28T13:20:53.306Z,0.47
2022-09-28T13:23:23.376Z,0.51
2022-09-28T13:25:53.821Z,0.4
2022-09-28T13:28:26.996Z,0.55
2022-09-28T13:30:54.855Z,0.45
2022-09-28T13:33:25.199Z,0.5
2022-09-28T13:35:55.711Z,0.5
2022-09-28T13:38:26.206Z,0.4
2022-09-28T13:40:56.588Z,0.3
2022-09-28T13:43:27.029Z,0.43
2022-09-28T13:45:57.555Z,0.41
2022-09-28T13:48:27.913Z,0.33
2022-09-28T13:50:58.463Z,0.29
2022-09-28T13:53:28.780Z,0.45
2022-09-28T13:55:59.219Z,0.56
2022-09-28T13:58:29.638Z,0.52
2022-09-28T14:01:00.093Z,0.42
2022-09-28T14:03:30.512Z,0.42
2022-09-28T14:06:00.948Z,0.39
2022-09-28T14:08:31.460Z,0.34
2022-09-28T14:11:01.881Z,0.45
2022-09-28T14:13:32.245Z,0.4
2022-09-28T14:16:02.724Z,0.48
2022-09-28T14:18:33.067Z,0.49
2022-09-28T14:21:03.630Z,0.51
2022-09-28T14:23:34.188Z,0.54
2022-09-28T14:26:04.357Z,0.42
2022-09-28T14:28:34.795Z,0.45
2022-09-28T14:31:05.356Z,0.49
2022-09-28T14:33:35.621Z,0.42
2022-09-28T14:36:05.754Z,0.36
2022-09-28T14:38:36.143Z,0.27
2022-09-28T14:41:06.777Z,0.51
2022-09-28T14:43:36.959Z,0.35
2022-09-28T14:46:07.402Z,0.3
2022-09-28T14:48:37.849Z,0.27
2022-09-28T14:51:08.267Z,0.23
2022-09-28T14:53:38.623Z,0.18
2022-09-28T14:56:09.025Z,0.14
2022-09-28T14:58:39.426Z,0.17
2022-09-28T15:01:09.838Z,0.15
2022-09-28T15:03:40.189Z,0.16
2022-09-28T15:06:10.604Z,0.35
2022-09-28T15:08:41.012Z,0.32
2022-09-28T15:11:11.466Z,0.35
2022-09-28T15:13:41.872Z,0.4
2022-09-28T15:16:12.344Z,0.37
2022-09-28T15:18:42.765Z,0.36
2022-09-28T15:21:13.214Z,0.37
2022-09-28T15:23:43.363Z,0.36
2022-09-28T15:26:14.354Z,0.42
2022-09-28T15:28:44.184Z,0.38
2022-09-28T15:31:14.761Z,0.35
2022-09-28T15:33:45.089Z,0.35
2022-09-28T15:36:15.676Z,0.37
2022-09-28T15:38:46.041Z,0.36
2022-09-28T15:41:16.467Z,0.32
2022-09-28T15:43:46.956Z,0.34
2022-09-28T15:46:17.540Z,0.22
2022-09-28T15:48:47.861Z,0.2
2022-09-28T15:51:18.445Z,0.28
2022-09-28T15:53:48.775Z,0.34
2022-09-28T15:56:19.255Z,0.36
2022-09-28T15:58:49.721Z,0.37
2022-09-28T16:01:20.295Z,0.36
2022-09-28T16:03:50.656Z,0.36
2022-09-28T16:06:21.208Z,0.38
2022-09-28T16:08:51.631Z,0.35
2022-09-28T16:11:22.069Z,0.32
2022-09-28T16:13:52.558Z,0.3
2022-09-28T16:16:23.070Z,0.32
2022-09-28T16:18:53.422Z,0.31
2022-09-28T16:21:23.902Z,0.36
2022-09-28T16:23:54.295Z,0.3
2022-09-28T16:26:24.815Z,0.32
2022-09-28T16:28:55.209Z,0.3
2022-09-28T16:31:25.735Z,0.27
2022-09-28T16:33:56.101Z,0.24
2022-09-28T16:36:26.632Z,0.36
2022-09-28T16:38:57.049Z,0.43
2022-09-28T16:41:27.493Z,0.41
2022-09-28T16:43:57.943Z,0.36
2022-09-28T16:46:28.575Z,0.38
2022-09-28T16:48:58.868Z,0.42
2022-09-28T16:51:29.372Z,0.37
2022-09-28T16:53:59.876Z,0.35
2022-09-28T16:56:30.405Z,0.41
2022-09-28T16:59:00.950Z,0.39
2022-09-28T17:01:31.688Z,0.37
2022-09-28T17:04:02.193Z,0.37
2022-09-28T17:06:32.462Z,0.38
2022-09-28T17:09:03.085Z,0.33
2022-09-28T17:11:33.766Z,0.36
2022-09-28T17:14:04.170Z,0.28
2022-09-28T17:19:04.825Z,0.19
2022-09-28T17:21:35.284Z,0.11
2022-09-28T17:24:05.720Z,0.11
2022-09-28T17:26:36.171Z,0.17
2022-09-28T17:29:06.621Z,0.15
2022-09-28T17:31:37.185Z,0.16
2022-09-28T17:34:07.475Z,0.19
2022-09-28T17:36:37.937Z,0.19
2022-09-28T17:39:08.323Z,0.13
2022-09-28T17:41:38.767Z,0.09
2022-09-28T17:44:09.174Z,0.11
2022-09-28T17:46:39.744Z,0.14
2022-09-28T17:49:10.033Z,0.15
2022-09-28T17:51:40.455Z,0.16
2022-09-28T17:54:10.874Z,0.16
2022-09-28T17:56:41.304Z,0.17
2022-09-28T17:59:11.863Z,0.14
2022-09-28T18:01:42.313Z,0.11
2022-09-28T18:04:19.190Z,0.11
2022-09-28T18:06:43.046Z,0.09
2022-09-28T18:09:13.457Z,0.08
2022-09-28T18:11:43.912Z,0.1
2022-09-28T18:14:14.342Z,0.11
2022-09-28T18:16:44.817Z,0.11
2022-09-28T18:19:15.228Z,0.11
2022-09-28T18:21:45.694Z,0.15
2022-09-28T18:24:16.208Z,0.15
2022-09-28T18:26:46.621Z,0.13
2022-09-28T18:29:17.174Z,0.1
2022-09-28T18:31:47.722Z,0.08
2022-09-28T18:34:18.110Z,0.07
2022-09-28T18:36:48.567Z,0.08
2022-09-28T18:39:19.149Z,0.07
2022-09-28T18:41:49.177Z,0.1
2022-09-28T18:44:19.341Z,0.11
2022-09-28T18:46:49.962Z,0.14
2022-09-28T18:49:20.537Z,0.16
2022-09-28T18:51:50.904Z,0.16
2022-09-28T18:54:21.293Z,0.16
2022-09-28T18:56:51.879Z,0.15
2022-09-28T18:59:22.461Z,0.1
2022-09-28T19:01:53.071Z,0.09
2022-09-28T19:04:23.333Z,0.09
2022-09-28T19:06:53.846Z,0.09
2022-09-28T19:09:24.336Z,0.11
2022-09-28T19:11:54.863Z,0.1
2022-09-28T19:14:25.371Z,0.11
2022-09-28T19:16:55.898Z,0.13
2022-09-28T19:19:26.391Z,0.11
2022-09-28T19:21:56.937Z,0.09
2022-09-28T19:24:27.425Z,0.09
2022-09-28T19:26:58.088Z,0.08
2022-09-28T19:29:28.466Z,0.09
2022-09-28T19:31:59.037Z,0.09
2022-09-28T19:34:29.542Z,0.11
2022-09-28T19:37:00.099Z,0.12
2022-09-28T19:39:30.631Z,0.11
2022-09-28T19:42:01.189Z,0.11
2022-09-28T19:44:31.691Z,0.11
2022-09-28T19:47:02.377Z,0.11
2022-09-28T19:49:32.772Z,0.11
2022-09-28T19:52:14.576Z,0.11
2022-09-28T19:54:36.503Z,0.12
2022-09-28T19:57:04.434Z,0.11
2022-09-28T19:59:35.003Z,0.1
2022-09-28T20:02:05.565Z,0.1
2022-09-28T20:04:36.143Z,0.1
2022-09-28T20:07:06.684Z,0.1
2022-09-28T20:09:37.178Z,0.11
2022-09-28T20:12:07.757Z,0.11
2022-09-28T20:14:40.478Z,0.11
2022-09-28T20:17:08.892Z,0.11
2022-09-28T20:19:39.414Z,0.13
2022-09-28T20:22:09.928Z,0.13
2022-09-28T20:24:40.472Z,0.12
2022-09-28T20:27:11.026Z,0.12
2022-09-28T20:29:41.623Z,0.12
2022-09-28T20:32:12.150Z,0.13
2022-09-28T20:34:42.667Z,0.15
2022-09-28T20:37:13.464Z,0.13
2022-09-28T20:39:45.051Z,0.13
2022-09-28T20:42:14.356Z,0.15
2022-09-28T20:44:44.824Z,0.15
2022-09-28T20:47:15.402Z,0.14
2022-09-28T20:49:45.920Z,0.12
2022-09-28T20:52:16.534Z,0.12
2022-09-28T20:54:47.083Z,0.13
2022-09-28T20:57:17.792Z,0.13
2022-09-28T20:59:53.617Z,0.13
2022-09-28T21:02:18.792Z,0.12
2022-09-28T21:04:49.275Z,0.13
2022-09-28T21:07:19.849Z,0.12
2022-09-28T21:09:50.447Z,0.12
2022-09-28T21:12:21.076Z,0.11
2022-09-28T21:14:51.550Z,0.11
2022-09-28T21:17:22.153Z,0.11
2022-09-28T21:19:52.688Z,0.12
2022-09-28T21:22:23.302Z,0.14
2022-09-28T21:24:53.519Z,0.14
2022-09-28T21:27:24.065Z,0.13
2022-09-28T21:29:54.671Z,0.14
2022-09-28T21:32:25.257Z,0.14
2022-09-28T21:34:55.769Z,0.11
2022-09-28T21:37:26.169Z,0.1
2022-09-28T21:39:56.686Z,0.1
2022-09-28T21:42:27.337Z,0.09
2022-09-28T21:44:59.477Z,0.09
2022-09-28T21:47:28.425Z,0.1
2022-09-28T21:49:59.010Z,0.11
2022-09-28T21:52:29.628Z,0.12
2022-09-28T21:55:00.237Z,0.12
2022-09-28T21:57:30.831Z,0.12
2022-09-28T22:00:01.458Z,0.13
2022-09-28T22:02:32.059Z,0.13
2022-09-28T22:05:02.620Z,0.13
2022-09-28T22:07:33.237Z,0.13
2022-09-28T22:10:03.806Z,0.13
2022-09-28T22:12:34.436Z,0.13
2022-09-28T22:15:05.016Z,0.13
2022-09-28T22:17:35.664Z,0.13
2022-09-28T22:20:06.230Z,0.13
2022-09-28T22:22:36.891Z,0.13
2022-09-28T22:25:07.566Z,0.14
2022-09-28T22:27:38.083Z,0.12
2022-09-28T22:30:08.710Z,0.12
2022-09-28T22:32:39.092Z,0.13
2022-09-28T22:35:09.609Z,0.13
2022-09-28T22:37:40.241Z,0.12
2022-09-28T22:40:10.938Z,0.13
2022-09-28T22:42:41.460Z,0.12
2022-09-28T22:45:12.060Z,0.12
2022-09-28T22:47:42.718Z,0.13
2022-09-28T22:50:13.363Z,0.14
2022-09-28T22:52:43.931Z,0.14
2022-09-28T22:55:14.536Z,0.15
2022-09-28T22:57:45.166Z,0.19
2022-09-28T23:00:15.774Z,0.17
2022-09-28T23:02:46.531Z,0.16
2022-09-28T23:05:17.041Z,0.15
2022-09-28T23:07:47.674Z,0.15
2022-09-28T23:10:18.277Z,0.14
2022-09-28T23:12:48.930Z,0.14
2022-09-28T23:15:19.189Z,0.15
2022-09-28T23:17:49.836Z,0.13
2022-09-28T23:20:20.431Z,0.13
2022-09-28T23:22:51.067Z,0.14
2022-09-28T23:25:21.683Z,0.14
2022-09-28T23:27:52.331Z,0.12
2022-09-28T23:30:22.956Z,0.14
2022-09-28T23:32:53.595Z,0.13
2022-09-28T23:35:24.196Z,0.15
2022-09-28T23:37:54.674Z,0.16
2022-09-28T23:40:25.259Z,0.14
2022-09-28T23:42:55.949Z,0.15
2022-09-28T23:45:26.178Z,0.15
2022-09-28T23:47:56.580Z,0.15
2022-09-28T23:50:27.078Z,0.14
2022-09-28T23:52:57.704Z,0.14
2022-09-28T23:55:28.329Z,0.15
2022-09-28T23:57:58.964Z,0.15
